Time;durP1;ratioP1;P1;durP2;ratioP2;P2;SDS_P1;SDS_P2;PMS_P1;PMS_P2;Temp;Humidity;BMP_temperature;BMP_pressure;BME280_temperature;BME280_humidity;BME280_pressure;Samples;Min_cycle;Max_cycle;Signal;HPM_P1;HPM_P2
2022/09/23 00:00:12;;;;;;;6.82;2.53;;;;;;;;;;4966501;28;20084;-63
2022/09/23 00:02:39;;;;;;;5.55;2.38;;;;;;;;;;4970032;28;20046;-72
2022/09/23 00:05:09;;;;;;;6.22;2.35;;;;;;;;;;4969958;28;20066;-65
2022/09/23 00:07:37;;;;;;;5.38;2.22;;;;;;;;;;4966117;28;20400;-66
2022/09/23 00:10:04;;;;;;;5.50;2.22;;;;;;;;;;4970510;28;20059;-62
2022/09/23 00:12:33;;;;;;;5.75;2.25;;;;;;;;;;4966020;28;20056;-71
2022/09/23 00:14:59;;;;;;;7.65;2.47;;;;;;;;;;4969501;28;20047;-69
2022/09/23 00:17:26;;;;;;;5.32;2.08;;;;;;;;;;4965505;28;20070;-67
2022/09/23 00:19:53;;;;;;;5.95;2.35;;;;;;;;;;4969664;28;20055;-60
2022/09/23 00:22:19;;;;;;;5.28;2.35;;;;;;;;;;4965992;28;20066;-65
2022/09/23 00:24:46;;;;;;;6.82;2.20;;;;;;;;;;4969659;28;20058;-64
2022/09/23 00:27:12;;;;;;;5.78;2.22;;;;;;;;;;4965689;28;20043;-63
2022/09/23 00:29:40;;;;;;;4.35;2.00;;;;;;;;;;4970111;28;20070;-57
2022/09/23 00:32:07;;;;;;;5.32;2.30;;;;;;;;;;4981557;28;20049;-69
2022/09/23 00:34:34;;;;;;;4.05;2.30;;;;;;;;;;4970739;28;20059;-59
2022/09/23 00:37:00;;;;;;;5.82;2.42;;;;;;;;;;4966879;28;20042;-58
2022/09/23 00:39:27;;;;;;;4.95;2.25;;;;;;;;;;4969569;28;20058;-64
2022/09/23 00:41:54;;;;;;;5.97;2.33;;;;;;;;;;4965189;28;20449;-69
2022/09/23 00:44:41;;;;;;;4.82;2.10;;;;;;;;;;4968696;28;20098;-65
2022/09/23 00:47:11;;;;;;;6.13;2.08;;;;;;;;;;4965263;28;20089;-67
2022/09/23 00:49:38;;;;;;;6.10;2.47;;;;;;;;;;4969418;28;20082;-64
2022/09/23 00:52:07;;;;;;;4.93;2.13;;;;;;;;;;4966800;28;20058;-63
2022/09/23 00:54:33;;;;;;;4.00;1.95;;;;;;;;;;4968741;28;20058;-61
2022/09/23 00:57:00;;;;;;;4.70;2.25;;;;;;;;;;4969614;28;20066;-62
2022/09/23 00:59:27;;;;;;;5.72;2.35;;;;;;;;;;4964762;28;20122;-56
2022/09/23 01:01:55;;;;;;;5.47;2.58;;;;;;;;;;4969390;28;20058;-59
2022/09/23 01:04:25;;;;;;;5.95;2.55;;;;;;;;;;4948824;28;20109;-62
2022/09/23 01:06:51;;;;;;;4.63;2.10;;;;;;;;;;4949823;28;20054;-61
2022/09/23 01:09:18;;;;;;;5.40;2.40;;;;;;;;;;4945375;28;20059;-61
2022/09/23 01:11:49;;;;;;;5.18;2.15;;;;;;;;;;4949434;29;20051;-59
2022/09/23 01:14:26;;;;;;;5.18;2.40;;;;;;;;;;4944638;28;20066;-62
2022/09/23 01:16:54;;;;;;;4.55;2.35;;;;;;;;;;4949633;29;20055;-62
2022/09/23 01:19:31;;;;;;;5.73;2.30;;;;;;;;;;4945796;28;20082;-66
2022/09/23 01:22:03;;;;;;;5.32;2.28;;;;;;;;;;4949805;29;20334;-63
2022/09/23 01:24:51;;;;;;;6.43;2.80;;;;;;;;;;4944860;28;20079;-72
2022/09/23 01:27:28;;;;;;;4.03;1.95;;;;;;;;;;4949264;29;20051;-69
2022/09/23 01:30:05;;;;;;;4.45;2.17;;;;;;;;;;4934728;28;20055;-65
2022/09/23 01:32:37;;;;;;;5.38;2.42;;;;;;;;;;4930187;29;20063;-64
2022/09/23 01:35:07;;;;;;;7.45;2.60;;;;;;;;;;4928011;28;20059;-72
2022/09/23 01:37:35;;;;;;;6.63;2.85;;;;;;;;;;4930434;28;20059;-65
2022/09/23 01:40:05;;;;;;;7.80;2.80;;;;;;;;;;4955002;28;20065;-71
2022/09/23 01:42:36;;;;;;;6.50;2.10;;;;;;;;;;4944371;28;20050;-64
2022/09/23 01:45:05;;;;;;;4.40;2.15;;;;;;;;;;4933737;28;20091;-62
2022/09/23 01:47:35;;;;;;;5.55;2.50;;;;;;;;;;4948855;28;20151;-69
2022/09/23 01:50:54;;;;;;;5.93;2.20;;;;;;;;;;4944659;28;20070;-64
2022/09/23 01:52:53;;;;;;;5.15;2.47;;;;;;;;;;4948924;29;20055;-68
2022/09/23 01:55:22;;;;;;;5.10;2.22;;;;;;;;;;4954807;28;20086;-75
2022/09/23 01:57:52;;;;;;;4.82;2.13;;;;;;;;;;4967891;28;20477;-66
2022/09/23 02:00:21;;;;;;;5.30;2.20;;;;;;;;;;4964113;28;20161;-70
2022/09/23 02:02:49;;;;;;;3.97;1.92;;;;;;;;;;4968004;28;20061;-72
2022/09/23 02:05:19;;;;;;;5.13;2.30;;;;;;;;;;4963595;28;20086;-71
2022/09/23 02:07:48;;;;;;;5.32;2.33;;;;;;;;;;4968083;28;20054;-68
2022/09/23 02:10:17;;;;;;;4.72;2.00;;;;;;;;;;4964605;28;20138;-60
2022/09/23 02:12:46;;;;;;;4.55;1.98;;;;;;;;;;4968168;28;20055;-65
2022/09/23 02:15:15;;;;;;;4.05;2.15;;;;;;;;;;4967790;28;20061;-65
2022/09/23 02:17:44;;;;;;;4.65;2.28;;;;;;;;;;4966382;28;20050;-69
2022/09/23 02:20:13;;;;;;;5.05;2.33;;;;;;;;;;4967645;28;20058;-75
2022/09/23 02:22:47;;;;;;;4.80;2.20;;;;;;;;;;4963717;28;20130;-73
2022/09/23 02:25:16;;;;;;;4.30;2.13;;;;;;;;;;4967632;28;20113;-67
2022/09/23 02:27:46;;;;;;;4.30;2.10;;;;;;;;;;4963942;28;20086;-71
2022/09/23 02:30:14;;;;;;;5.13;2.42;;;;;;;;;;4967635;28;20086;-66
2022/09/23 02:32:45;;;;;;;3.87;1.80;;;;;;;;;;4964140;28;20061;-67
2022/09/23 02:35:16;;;;;;;5.22;2.22;;;;;;;;;;4966600;28;20050;-68
2022/09/23 02:37:47;;;;;;;6.38;2.28;;;;;;;;;;4963776;28;20149;-68
2022/09/23 02:40:17;;;;;;;4.80;2.22;;;;;;;;;;4967326;28;20063;-71
2022/09/23 02:42:47;;;;;;;5.38;2.25;;;;;;;;;;4959964;28;20058;-62
2022/09/23 02:45:13;;;;;;;6.30;2.55;;;;;;;;;;4945957;28;20056;-66
2022/09/23 02:47:42;;;;;;;5.13;2.22;;;;;;;;;;4970254;28;20070;-68
2022/09/23 02:50:09;;;;;;;5.65;2.33;;;;;;;;;;4967009;28;20054;-70
2022/09/23 02:52:36;;;;;;;7.95;2.40;;;;;;;;;;4963125;28;20050;-63
2022/09/23 02:55:06;;;;;;;7.45;2.10;;;;;;;;;;4969534;28;20047;-62
2022/09/23 02:57:32;;;;;;;3.33;1.80;;;;;;;;;;4962420;28;20106;-66
2022/09/23 03:00:01;;;;;;;5.95;2.35;;;;;;;;;;4952546;28;20057;-66
2022/09/23 03:02:34;;;;;;;5.18;2.22;;;;;;;;;;4948328;28;20059;-62
2022/09/23 03:05:05;;;;;;;9.82;3.67;;;;;;;;;;4951259;29;20149;-71
2022/09/23 03:07:41;;;;;;;6.03;2.30;;;;;;;;;;4947368;28;20078;-60
2022/09/23 03:10:15;;;;;;;4.28;2.28;;;;;;;;;;4951896;29;20063;-72
2022/09/23 03:12:46;;;;;;;5.63;2.63;;;;;;;;;;4949303;28;20090;-76
2022/09/23 03:15:18;;;;;;;4.35;2.08;;;;;;;;;;4970793;28;20059;-59
2022/09/23 03:17:48;;;;;;;5.07;2.22;;;;;;;;;;4966884;28;20051;-53
2022/09/23 03:20:20;;;;;;;4.82;2.40;;;;;;;;;;4932421;29;20140;-64
2022/09/23 03:22:48;;;;;;;5.25;2.40;;;;;;;;;;4932098;29;20074;-58
2022/09/23 03:25:18;;;;;;;5.40;2.60;;;;;;;;;;4929242;28;20059;-57
2022/09/23 03:27:45;;;;;;;5.20;2.63;;;;;;;;;;4932548;29;20056;-58
2022/09/23 03:30:12;;;;;;;6.97;2.40;;;;;;;;;;4945829;28;20082;-56
2022/09/23 03:32:43;;;;;;;5.00;2.38;;;;;;;;;;4952444;29;20055;-51
2022/09/23 03:35:10;;;;;;;6.25;2.60;;;;;;;;;;4962482;28;20051;-59
2022/09/23 03:37:39;;;;;;;5.00;2.20;;;;;;;;;;4969288;28;20058;-71
2022/09/23 03:40:08;;;;;;;8.55;4.15;;;;;;;;;;4947323;28;20055;-71
2022/09/23 03:42:37;;;;;;;6.03;2.83;;;;;;;;;;4950874;28;20055;-66
2022/09/23 03:45:05;;;;;;;;;;;;;;;;;;4973896;28;20082;-69
2022/09/23 03:47:32;;;;;;;6.32;2.55;;;;;;;;;;4987039;28;19933;-72
2022/09/23 03:49:58;;;;;;;6.35;2.53;;;;;;;;;;4965705;28;20062;-63
2022/09/23 03:52:25;;;;;;;4.90;2.45;;;;;;;;;;4970309;28;20058;-65
2022/09/23 03:54:52;;;;;;;7.10;3.17;;;;;;;;;;4965645;28;20054;-62
2022/09/23 03:57:20;;;;;;;6.80;3.28;;;;;;;;;;4970110;28;20065;-69
2022/09/23 03:59:49;;;;;;;6.43;2.20;;;;;;;;;;4966244;28;20122;-69
2022/09/23 04:02:16;;;;;;;6.07;2.63;;;;;;;;;;4970257;28;20054;-56
2022/09/23 04:04:43;;;;;;;7.25;3.40;;;;;;;;;;4965295;28;20110;-72
2022/09/23 04:07:09;;;;;;;5.50;2.30;;;;;;;;;;4969065;28;20051;-70
2022/09/23 04:09:36;;;;;;;5.75;2.47;;;;;;;;;;4970099;28;20058;-69
2022/09/23 04:12:03;;;;;;;6.97;3.10;;;;;;;;;;4962629;28;20055;-69
2022/09/23 04:14:30;;;;;;;5.35;2.67;;;;;;;;;;4950293;28;20062;-68
2022/09/23 04:16:58;;;;;;;6.03;2.42;;;;;;;;;;4960360;28;20125;-74
2022/09/23 04:19:24;;;;;;;5.47;2.53;;;;;;;;;;4950881;28;20058;-65
2022/09/23 04:21:51;;;;;;;6.20;3.05;;;;;;;;;;4960740;28;20062;-68
2022/09/23 04:24:18;;;;;;;7.53;3.75;;;;;;;;;;4968168;28;20054;-64
2022/09/23 04:26:44;;;;;;;6.45;3.15;;;;;;;;;;4966075;28;20058;-68
2022/09/23 04:29:11;;;;;;;9.15;3.13;;;;;;;;;;4969703;28;20042;-70
2022/09/23 04:31:37;;;;;;;6.65;3.05;;;;;;;;;;4981923;28;20046;-58
2022/09/23 04:34:05;;;;;;;7.28;3.28;;;;;;;;;;4968893;28;20070;-69
2022/09/23 04:36:32;;;;;;;6.40;2.95;;;;;;;;;;4965344;28;20053;-62
2022/09/23 04:38:58;;;;;;;4.75;2.63;;;;;;;;;;4969323;28;20110;-71
2022/09/23 04:41:25;;;;;;;8.10;3.03;;;;;;;;;;4964755;28;20125;-62
2022/09/23 04:43:52;;;;;;;7.22;2.78;;;;;;;;;;4969266;28;20058;-64
2022/09/23 04:46:19;;;;;;;5.10;2.50;;;;;;;;;;4965473;28;20082;-65
2022/09/23 04:48:45;;;;;;;5.25;2.10;;;;;;;;;;4969344;28;20296;-71
2022/09/23 04:51:14;;;;;;;6.40;2.80;;;;;;;;;;4969453;28;20129;-56
2022/09/23 04:53:42;;;;;;;5.28;2.67;;;;;;;;;;4964855;28;20061;-59
2022/09/23 04:56:10;;;;;;;11.07;5.72;;;;;;;;;;4968653;28;20061;-60
2022/09/23 04:58:37;;;;;;;41.50;17.30;;;;;;;;;;4962949;28;20059;-72
2022/09/23 05:01:10;;;;;;;7.50;3.60;;;;;;;;;;4964826;28;20050;-66
2022/09/23 05:03:37;;;;;;;7.28;3.35;;;;;;;;;;4964396;28;20050;-67
2022/09/23 05:06:04;;;;;;;8.43;3.45;;;;;;;;;;4965837;28;20059;-58
2022/09/23 05:08:33;;;;;;;9.68;4.40;;;;;;;;;;4960090;28;20149;-71
2022/09/23 05:11:00;;;;;;;8.05;3.00;;;;;;;;;;4965537;28;20133;-60
2022/09/23 05:13:27;;;;;;;6.90;2.83;;;;;;;;;;4963913;28;20059;-63
2022/09/23 05:15:57;;;;;;;7.78;3.40;;;;;;;;;;4963907;28;20055;-68
2022/09/23 05:18:23;;;;;;;6.85;3.03;;;;;;;;;;4958823;28;20055;-56
2022/09/23 05:20:52;;;;;;;9.38;3.83;;;;;;;;;;4965459;28;20055;-73
2022/09/23 05:23:18;;;;;;;;;;;;;;;;;;4960512;28;20057;-54
2022/09/23 05:25:47;;;;;;;8.82;3.00;;;;;;;;;;4966580;28;19981;-69
2022/09/23 05:28:18;;;;;;;6.95;3.35;;;;;;;;;;4960010;28;20047;-68
2022/09/23 05:30:44;;;;;;;8.00;3.38;;;;;;;;;;4963448;28;20061;-73
2022/09/23 05:33:11;;;;;;;7.30;3.22;;;;;;;;;;4960732;28;20062;-62
2022/09/23 05:35:37;;;;;;;9.27;4.57;;;;;;;;;;4965091;28;20106;-60
2022/09/23 05:38:04;;;;;;;9.50;4.45;;;;;;;;;;4962956;28;20055;-63
2022/09/23 05:40:31;;;;;;;9.18;4.65;;;;;;;;;;4959331;28;20074;-68
2022/09/23 05:42:59;;;;;;;11.40;3.63;;;;;;;;;;4964152;28;20057;-73
2022/09/23 05:45:26;;;;;;;6.10;2.72;;;;;;;;;;4976888;28;20069;-73
2022/09/23 05:47:52;;;;;;;13.10;5.07;;;;;;;;;;4966246;28;20062;-68
2022/09/23 05:50:19;;;;;;;7.15;3.38;;;;;;;;;;4959430;28;20101;-69
2022/09/23 05:52:46;;;;;;;7.35;3.00;;;;;;;;;;4981092;28;20063;-55
2022/09/23 05:55:12;;;;;;;9.55;3.75;;;;;;;;;;4960752;28;20055;-71
2022/09/23 05:57:39;;;;;;;6.55;3.10;;;;;;;;;;4963832;28;20425;-73
2022/09/23 06:00:08;;;;;;;6.53;2.90;;;;;;;;;;4965056;28;20047;-75
2022/09/23 06:02:35;;;;;;;10.43;4.72;;;;;;;;;;4979245;28;20066;-74
2022/09/23 06:05:01;;;;;;;7.95;4.15;;;;;;;;;;4956940;28;20043;-69
2022/09/23 06:07:28;;;;;;;6.63;3.10;;;;;;;;;;4967945;28;20070;-74
2022/09/23 06:09:55;;;;;;;6.38;2.72;;;;;;;;;;4965636;28;20108;-72
2022/09/23 06:12:23;;;;;;;6.43;2.88;;;;;;;;;;4966987;28;20066;-77
2022/09/23 06:14:49;;;;;;;6.90;3.17;;;;;;;;;;4960662;28;20129;-68
2022/09/23 06:17:17;;;;;;;7.07;3.42;;;;;;;;;;4959699;28;20047;-64
2022/09/23 06:19:44;;;;;;;6.72;2.90;;;;;;;;;;4970240;28;20051;-77
2022/09/23 06:22:10;;;;;;;8.40;3.10;;;;;;;;;;4966737;28;20138;-55
2022/09/23 06:24:37;;;;;;;6.57;3.00;;;;;;;;;;4965125;28;20065;-67
2022/09/23 06:27:04;;;;;;;6.50;2.55;;;;;;;;;;4965432;28;20114;-65
2022/09/23 06:29:32;;;;;;;7.55;3.10;;;;;;;;;;4966329;28;20054;-74
2022/09/23 06:31:59;;;;;;;9.65;3.97;;;;;;;;;;4965921;28;20055;-72
2022/09/23 06:34:36;;;;;;;6.18;3.00;;;;;;;;;;4962611;28;20046;-60
2022/09/23 06:37:03;;;;;;;5.07;2.47;;;;;;;;;;4961576;28;20055;-77
2022/09/23 06:39:30;;;;;;;6.57;3.67;;;;;;;;;;4968290;28;20137;-68
2022/09/23 06:41:56;;;;;;;7.75;4.05;;;;;;;;;;4965629;28;20181;-68
2022/09/23 06:44:31;;;;;;;7.68;3.42;;;;;;;;;;4968879;28;20055;-70
2022/09/23 06:46:57;;;;;;;7.38;3.78;;;;;;;;;;4964382;28;20054;-62
2022/09/23 06:49:24;;;;;;;6.25;3.08;;;;;;;;;;4969963;28;20049;-62
2022/09/23 06:51:52;;;;;;;5.60;2.78;;;;;;;;;;4963226;28;20066;-74
2022/09/23 06:54:19;;;;;;;10.93;4.80;;;;;;;;;;4969341;28;20101;-76
2022/09/23 06:56:46;;;;;;;9.05;4.25;;;;;;;;;;4969414;28;20054;-69
2022/09/23 06:59:15;;;;;;;5.90;2.92;;;;;;;;;;4973069;28;20050;-57
2022/09/23 07:01:44;;;;;;;6.28;3.35;;;;;;;;;;4970089;28;20934;-70
2022/09/23 07:04:11;;;;;;;6.32;2.92;;;;;;;;;;4972577;28;20105;-70
2022/09/23 07:06:38;;;;;;;8.88;2.90;;;;;;;;;;4964658;28;20054;-65
2022/09/23 07:09:07;;;;;;;7.80;3.00;;;;;;;;;;4969832;28;20065;-73
2022/09/23 07:11:33;;;;;;;5.80;3.35;;;;;;;;;;4986839;28;20046;-68
2022/09/23 07:14:02;;;;;;;6.40;2.85;;;;;;;;;;4969409;28;20050;-72
2022/09/23 07:16:28;;;;;;;;;;;;;;;;;;4968046;28;20077;-74
2022/09/23 07:18:55;;;;;;;11.70;3.10;;;;;;;;;;4985728;28;19977;-78
2022/09/23 07:21:21;;;;;;;8.13;3.13;;;;;;;;;;4970667;28;20055;-77
2022/09/23 07:23:50;;;;;;;7.22;2.95;;;;;;;;;;4968349;28;20062;-77
2022/09/23 07:26:19;;;;;;;8.57;4.10;;;;;;;;;;4972952;28;20050;-76
2022/09/23 07:28:46;;;;;;;6.30;3.08;;;;;;;;;;4969491;28;20065;-77
2022/09/23 07:31:13;;;;;;;8.95;4.40;;;;;;;;;;4973079;28;20054;-70
2022/09/23 07:33:49;;;;;;;6.43;2.85;;;;;;;;;;4968607;28;20215;-78
2022/09/23 07:36:17;;;;;;;7.53;3.00;;;;;;;;;;4964795;28;20054;-74
2022/09/23 07:38:47;;;;;;;8.23;3.38;;;;;;;;;;4963033;28;20097;-64
2022/09/23 07:41:14;;;;;;;7.30;2.88;;;;;;;;;;4969861;28;20058;-73
2022/09/23 07:43:48;;;;;;;5.82;2.72;;;;;;;;;;4971489;28;20050;-60
2022/09/23 07:46:16;;;;;;;7.32;2.58;;;;;;;;;;4974653;28;20046;-66
2022/09/23 07:48:42;;;;;;;8.40;3.88;;;;;;;;;;4973259;28;20061;-75
2022/09/23 07:51:10;;;;;;;7.10;3.13;;;;;;;;;;4976791;28;20062;-57
2022/09/23 07:53:37;;;;;;;9.38;4.18;;;;;;;;;;4961453;28;20058;-64
2022/09/23 07:56:05;;;;;;;9.00;3.78;;;;;;;;;;4967151;28;20058;-59
2022/09/23 07:58:32;;;;;;;8.50;3.47;;;;;;;;;;4975945;28;20069;-63
2022/09/23 08:01:03;;;;;;;6.53;2.97;;;;;;;;;;4973184;28;20355;-54
2022/09/23 08:03:32;;;;;;;6.80;3.40;;;;;;;;;;4974875;28;20046;-63
2022/09/23 08:06:06;;;;;;;7.85;3.53;;;;;;;;;;4971361;28;20050;-61
2022/09/23 08:08:34;;;;;;;7.38;3.25;;;;;;;;;;4975759;28;20057;-68
2022/09/23 08:11:02;;;;;;;6.78;3.53;;;;;;;;;;4972525;28;20073;-62
2022/09/23 08:13:29;;;;;;;10.27;3.45;;;;;;;;;;4975193;28;20050;-62
2022/09/23 08:15:56;;;;;;;9.48;3.85;;;;;;;;;;4971561;28;20047;-51
2022/09/23 08:18:24;;;;;;;8.88;4.13;;;;;;;;;;4973200;28;20051;-51
2022/09/23 08:20:51;;;;;;;7.00;3.30;;;;;;;;;;4988103;28;20064;-71
2022/09/23 08:23:20;;;;;;;8.55;4.00;;;;;;;;;;4971744;28;20150;-65
2022/09/23 08:25:46;;;;;;;;;;;;;;;;;;4971490;28;20046;-53
2022/09/23 08:28:14;;;;;;;8.63;3.53;;;;;;;;;;4971320;28;20029;-75
2022/09/23 08:30:41;;;;;;;8.75;4.55;;;;;;;;;;4972708;28;20050;-76
2022/09/23 08:33:29;;;;;;;11.50;4.97;;;;;;;;;;4975959;28;20051;-68
2022/09/23 08:36:00;;;;;;;6.65;3.38;;;;;;;;;;4893707;29;20112;-74
2022/09/23 08:38:27;;;;;;;7.78;3.67;;;;;;;;;;4971333;28;20058;-72
2022/09/23 08:41:01;;;;;;;6.32;3.15;;;;;;;;;;4973004;28;20062;-75
2022/09/23 08:43:31;;;;;;;10.75;4.75;;;;;;;;;;4975212;28;20050;-60
2022/09/23 08:46:00;;;;;;;7.60;3.60;;;;;;;;;;4965183;28;20051;-71
2022/09/23 08:48:28;;;;;;;6.57;3.05;;;;;;;;;;4971497;28;20141;-72
2022/09/23 08:50:57;;;;;;;8.70;3.20;;;;;;;;;;4971589;28;20141;-75
2022/09/23 08:53:28;;;;;;;8.20;4.03;;;;;;;;;;4989293;28;20050;-73
2022/09/23 08:55:56;;;;;;;11.63;5.30;;;;;;;;;;4968980;28;20050;-67
2022/09/23 08:58:38;;;;;;;11.05;4.80;;;;;;;;;;4975274;28;20059;-65
2022/09/23 09:01:13;;;;;;;11.02;5.20;;;;;;;;;;4972060;28;20104;-72
2022/09/23 09:03:45;;;;;;;7.30;3.45;;;;;;;;;;4973673;28;20057;-74
2022/09/23 09:06:14;;;;;;;9.95;5.10;;;;;;;;;;4974003;28;20049;-65
2022/09/23 09:08:44;;;;;;;13.10;5.70;;;;;;;;;;4968207;28;20047;-77
2022/09/23 09:11:13;;;;;;;9.10;4.72;;;;;;;;;;4983721;28;20100;-66
2022/09/23 09:13:47;;;;;;;9.75;4.82;;;;;;;;;;4970398;28;20050;-69
2022/09/23 09:16:20;;;;;;;14.73;5.15;;;;;;;;;;4973764;28;20050;-74
2022/09/23 09:18:50;;;;;;;8.80;4.57;;;;;;;;;;4970512;28;20055;-71
2022/09/23 09:21:17;;;;;;;13.02;5.47;;;;;;;;;;4973864;28;20051;-73
2022/09/23 09:23:52;;;;;;;16.70;6.15;;;;;;;;;;4971138;28;20061;-63
2022/09/23 09:26:21;;;;;;;8.52;4.22;;;;;;;;;;4974255;28;20081;-68
2022/09/23 09:28:50;;;;;;;8.32;3.38;;;;;;;;;;4969139;28;20054;-70
2022/09/23 09:31:20;;;;;;;9.25;4.20;;;;;;;;;;4969111;28;20050;-70
2022/09/23 09:33:57;;;;;;;11.15;4.68;;;;;;;;;;4970699;28;20054;-70
2022/09/23 09:36:29;;;;;;;14.10;5.00;;;;;;;;;;4972365;28;20109;-73
2022/09/23 09:38:58;;;;;;;9.80;5.55;;;;;;;;;;4970286;28;20061;-71
2022/09/23 09:41:30;;;;;;;11.68;5.80;;;;;;;;;;4977355;28;20090;-66
2022/09/23 09:44:09;;;;;;;8.60;4.72;;;;;;;;;;4967336;28;20058;-68
2022/09/23 09:46:44;;;;;;;9.25;4.10;;;;;;;;;;4970291;28;20050;-72
2022/09/23 09:49:14;;;;;;;13.20;5.80;;;;;;;;;;4970746;28;20161;-66
2022/09/23 09:51:41;;;;;;;9.98;5.35;;;;;;;;;;4974486;28;20054;-60
2022/09/23 09:54:26;;;;;;;9.88;5.40;;;;;;;;;;4967817;28;20046;-65
2022/09/23 09:56:53;;;;;;;7.72;3.80;;;;;;;;;;4973981;28;20054;-72
2022/09/23 09:59:24;;;;;;;9.43;3.88;;;;;;;;;;4970398;28;20050;-72
2022/09/23 10:02:10;;;;;;;7.38;3.90;;;;;;;;;;4977491;28;20065;-58
2022/09/23 10:04:37;;;;;;;8.02;4.07;;;;;;;;;;4969319;28;20054;-62
2022/09/23 10:07:06;;;;;;;10.45;5.07;;;;;;;;;;4972771;28;20081;-73
2022/09/23 10:09:34;;;;;;;15.15;5.97;;;;;;;;;;4963852;28;20050;-73
2022/09/23 10:12:14;;;;;;;12.52;5.50;;;;;;;;;;4972344;28;20046;-68
2022/09/23 10:14:40;;;;;;;9.38;5.18;;;;;;;;;;4969333;28;20053;-62
2022/09/23 10:17:08;;;;;;;8.98;4.60;;;;;;;;;;4973565;28;20141;-62
2022/09/23 10:19:36;;;;;;;9.13;4.93;;;;;;;;;;4966828;28;20424;-57
2022/09/23 10:22:04;;;;;;;10.35;5.60;;;;;;;;;;4973800;28;20056;-63
2022/09/23 10:24:33;;;;;;;12.75;6.18;;;;;;;;;;4970438;28;20081;-63
2022/09/23 10:27:03;;;;;;;11.88;6.13;;;;;;;;;;4971896;28;20058;-61
2022/09/23 10:29:30;;;;;;;9.60;6.03;;;;;;;;;;4966287;28;20078;-66
2022/09/23 10:32:21;;;;;;;15.45;5.88;;;;;;;;;;4962543;28;20052;-65
2022/09/23 10:34:50;;;;;;;15.02;5.68;;;;;;;;;;4968865;28;20054;-77
2022/09/23 10:37:16;;;;;;;;;;;;;;;;;;4973648;28;20054;-65
2022/09/23 10:48:09;;;;;;;9.13;4.30;;;;;;;;;;4961945;28;20046;-51
2022/09/23 10:50:38;;;;;;;13.73;5.68;;;;;;;;;;4963360;28;20141;-70
2022/09/23 10:53:13;;;;;;;12.40;5.82;;;;;;;;;;4970921;28;20053;-63
2022/09/23 10:55:50;;;;;;;14.57;5.53;;;;;;;;;;4968813;28;20061;-66
2022/09/23 10:58:25;;;;;;;12.95;5.50;;;;;;;;;;4969830;28;20051;-77
2022/09/23 11:00:57;;;;;;;10.55;4.72;;;;;;;;;;4969027;28;20085;-68
2022/09/23 11:03:41;;;;;;;8.40;4.43;;;;;;;;;;4970772;28;20087;-71
2022/09/23 11:06:13;;;;;;;8.73;5.05;;;;;;;;;;4931983;28;20062;-70
2022/09/23 11:08:50;;;;;;;12.15;5.38;;;;;;;;;;4973209;28;20050;-74
2022/09/23 11:11:21;;;;;;;12.65;5.22;;;;;;;;;;4969878;28;20057;-71
2022/09/23 11:14:03;;;;;;;8.30;4.55;;;;;;;;;;4970996;28;20057;-60
2022/09/23 11:16:37;;;;;;;8.98;5.07;;;;;;;;;;4972205;28;20057;-76
2022/09/23 11:19:25;;;;;;;12.23;5.25;;;;;;;;;;4975035;28;20058;-69
2022/09/23 11:22:01;;;;;;;14.73;6.03;;;;;;;;;;4964486;28;20082;-67
2022/09/23 11:24:50;;;;;;;9.40;4.20;;;;;;;;;;4991054;28;20057;-71
2022/09/23 11:27:25;;;;;;;8.45;4.10;;;;;;;;;;4963278;28;20051;-68
2022/09/23 11:30:06;;;;;;;9.75;4.57;;;;;;;;;;4976368;28;20050;-70
2022/09/23 11:32:41;;;;;;;7.47;3.78;;;;;;;;;;4953450;28;20066;-70
2022/09/23 11:35:15;;;;;;;8.35;4.40;;;;;;;;;;4975165;28;20093;-65
2022/09/23 11:37:43;;;;;;;13.88;5.45;;;;;;;;;;4982907;28;20053;-71
2022/09/23 11:40:15;;;;;;;9.52;4.15;;;;;;;;;;4967042;28;20061;-72
2022/09/23 11:42:51;;;;;;;10.05;4.95;;;;;;;;;;4972317;28;20055;-59
2022/09/23 11:45:22;;;;;;;10.15;4.70;;;;;;;;;;4970568;28;20054;-70
2022/09/23 11:47:51;;;;;;;11.18;4.72;;;;;;;;;;4971478;28;21232;-76
2022/09/23 11:50:22;;;;;;;9.50;4.57;;;;;;;;;;4976552;28;20085;-71
2022/09/23 11:52:52;;;;;;;16.30;4.57;;;;;;;;;;4987127;28;20062;-75
2022/09/23 11:55:20;;;;;;;12.60;5.68;;;;;;;;;;4974775;28;20054;-69
2022/09/23 11:57:49;;;;;;;11.73;5.40;;;;;;;;;;4976781;28;20058;-74
2022/09/23 12:00:17;;;;;;;16.10;4.80;;;;;;;;;;4964771;28;20298;-71
2022/09/23 12:02:47;;;;;;;;;;;;;;;;;;4974639;28;20054;-69
2022/09/23 12:05:18;;;;;;;8.27;3.58;;;;;;;;;;4970117;28;19922;-70
2022/09/23 12:07:51;;;;;;;9.20;4.47;;;;;;;;;;4973571;28;20051;-75
2022/09/23 12:10:18;;;;;;;12.32;5.18;;;;;;;;;;4968303;28;20056;-77
2022/09/23 12:12:49;;;;;;;13.48;5.72;;;;;;;;;;4974277;28;20054;-67
2022/09/23 12:15:20;;;;;;;14.00;5.63;;;;;;;;;;4980572;28;20095;-62
2022/09/23 12:18:05;;;;;;;12.35;5.72;;;;;;;;;;4975546;28;20057;-68
2022/09/23 12:20:41;;;;;;;12.40;4.95;;;;;;;;;;4968332;28;20055;-78
2022/09/23 12:23:17;;;;;;;11.38;4.28;;;;;;;;;;4987265;28;20104;-69
2022/09/23 12:25:46;;;;;;;7.63;2.97;;;;;;;;;;4971969;28;20058;-72
2022/09/23 12:28:15;;;;;;;10.10;4.43;;;;;;;;;;4973197;28;20057;-77
2022/09/23 12:30:41;;;;;;;;;;;;;;;;;;4984620;28;20058;-63
2022/09/23 12:33:10;;;;;;;11.25;4.45;;;;;;;;;;4973353;28;19988;-72
2022/09/23 12:35:41;;;;;;;10.88;4.40;;;;;;;;;;4972033;28;20054;-77
2022/09/23 12:38:15;;;;;;;9.93;4.47;;;;;;;;;;4975469;28;20161;-63
2022/09/23 12:40:43;;;;;;;11.02;3.60;;;;;;;;;;4972022;28;20054;-68
2022/09/23 12:43:28;;;;;;;11.32;3.90;;;;;;;;;;4961718;28;20050;-75
2022/09/23 12:45:55;;;;;;;9.07;4.00;;;;;;;;;;4965965;28;20066;-76
2022/09/23 12:48:27;;;;;;;12.93;4.38;;;;;;;;;;4969047;28;20086;-77
2022/09/23 12:50:57;;;;;;;11.60;4.40;;;;;;;;;;4967381;28;20061;-72
2022/09/23 12:53:53;;;;;;;12.68;4.00;;;;;;;;;;4972170;28;20182;-65
2022/09/23 12:56:22;;;;;;;11.93;4.10;;;;;;;;;;4968451;28;20074;-70
2022/09/23 12:58:58;;;;;;;7.78;3.28;;;;;;;;;;4965699;28;20075;-58
2022/09/23 13:01:25;;;;;;;13.30;4.03;;;;;;;;;;4962229;28;20057;-71
2022/09/23 13:06:40;;;;;;;11.55;3.78;;;;;;;;;;4967550;28;20058;-72
2022/09/23 13:09:08;;;;;;;10.98;3.70;;;;;;;;;;4969388;28;20050;-76
2022/09/23 13:11:39;;;;;;;9.45;3.45;;;;;;;;;;4967158;28;20121;-70
2022/09/23 13:14:14;;;;;;;7.63;3.00;;;;;;;;;;4969207;28;20069;-67
2022/09/23 13:16:42;;;;;;;11.40;3.53;;;;;;;;;;4984038;28;20057;-73
2022/09/23 13:19:30;;;;;;;9.35;2.90;;;;;;;;;;4967397;28;20069;-74
2022/09/23 13:22:06;;;;;;;6.38;2.92;;;;;;;;;;4967764;28;20082;-75
2022/09/23 13:24:38;;;;;;;7.72;2.50;;;;;;;;;;4970708;28;20061;-70
2022/09/23 13:27:10;;;;;;;6.25;2.53;;;;;;;;;;4965594;28;20051;-76
2022/09/23 13:29:38;;;;;;;7.25;2.85;;;;;;;;;;4970158;28;20055;-67
2022/09/23 13:32:05;;;;;;;9.20;2.72;;;;;;;;;;4963073;28;20130;-77
2022/09/23 13:34:34;;;;;;;10.85;2.63;;;;;;;;;;4960825;28;20101;-70
2022/09/23 13:37:17;;;;;;;7.50;3.10;;;;;;;;;;4960398;28;20051;-66
2022/09/23 13:39:44;;;;;;;7.30;2.88;;;;;;;;;;4967553;28;20047;-70
2022/09/23 13:42:25;;;;;;;7.10;2.50;;;;;;;;;;4955925;28;20059;-71
2022/09/23 13:44:56;;;;;;;7.55;2.65;;;;;;;;;;4970394;28;20063;-70
2022/09/23 13:47:23;;;;;;;7.28;2.90;;;;;;;;;;4965538;28;20106;-72
2022/09/23 13:49:49;;;;;;;7.13;2.58;;;;;;;;;;4969398;28;20141;-74
2022/09/23 13:52:24;;;;;;;8.32;3.30;;;;;;;;;;4971216;28;20046;-67
2022/09/23 13:54:50;;;;;;;9.02;2.70;;;;;;;;;;4966451;28;20062;-64
2022/09/23 13:57:24;;;;;;;8.23;2.80;;;;;;;;;;4969861;28;20051;-61
2022/09/23 13:59:51;;;;;;;7.75;2.60;;;;;;;;;;4967866;28;20057;-75
2022/09/23 14:02:18;;;;;;;6.40;2.78;;;;;;;;;;4965654;28;20055;-62
2022/09/23 14:04:45;;;;;;;7.15;3.03;;;;;;;;;;4956728;28;20055;-65
2022/09/23 14:07:13;;;;;;;7.70;3.05;;;;;;;;;;4964704;28;20067;-62
2022/09/23 14:09:42;;;;;;;9.85;2.85;;;;;;;;;;4961869;28;20073;-57
2022/09/23 14:12:09;;;;;;;9.25;2.80;;;;;;;;;;4965246;28;20117;-56
2022/09/23 14:14:37;;;;;;;9.00;3.05;;;;;;;;;;4967098;28;20122;-50
2022/09/23 14:17:04;;;;;;;7.75;3.00;;;;;;;;;;4970536;28;20046;-52
2022/09/23 14:19:31;;;;;;;7.60;2.42;;;;;;;;;;4964658;28;20065;-63
2022/09/23 14:21:58;;;;;;;8.88;3.70;;;;;;;;;;4969378;28;20051;-68
2022/09/23 14:24:32;;;;;;;16.10;4.28;;;;;;;;;;4965918;28;20065;-76
2022/09/23 14:27:01;;;;;;;10.60;4.07;;;;;;;;;;4963500;28;20058;-77
2022/09/23 14:29:30;;;;;;;9.10;3.25;;;;;;;;;;4963056;28;20075;-64
2022/09/23 14:31:59;;;;;;;7.55;2.90;;;;;;;;;;4976679;28;20113;-74
2022/09/23 14:34:44;;;;;;;11.95;4.35;;;;;;;;;;4960888;28;20047;-61
2022/09/23 14:40:14;;;;;;;15.15;3.78;;;;;;;;;;4965656;28;20043;-60
2022/09/23 14:42:45;;;;;;;12.68;4.25;;;;;;;;;;4969701;28;20050;-64
2022/09/23 14:45:13;;;;;;;10.50;3.72;;;;;;;;;;4965650;28;20051;-60
2022/09/23 14:47:42;;;;;;;9.65;3.25;;;;;;;;;;4966441;28;20103;-77
2022/09/23 14:53:00;;;;;;;7.32;3.17;;;;;;;;;;4969258;28;20054;-63
2022/09/23 14:55:28;;;;;;;9.30;3.30;;;;;;;;;;4962837;28;20066;-72
2022/09/23 14:58:01;;;;;;;8.20;3.28;;;;;;;;;;4964490;28;20062;-66
2022/09/23 15:00:28;;;;;;;11.25;3.08;;;;;;;;;;4961661;28;20084;-65
2022/09/23 15:03:00;;;;;;;8.60;3.63;;;;;;;;;;4965870;28;20046;-61
2022/09/23 15:05:32;;;;;;;9.27;3.03;;;;;;;;;;4963746;28;20072;-64
2022/09/23 15:08:01;;;;;;;8.82;3.25;;;;;;;;;;4967430;28;20054;-60
2022/09/23 15:10:29;;;;;;;10.38;3.40;;;;;;;;;;4960779;28;20058;-58
2022/09/23 15:13:05;;;;;;;13.25;3.90;;;;;;;;;;4969297;28;20058;-69
2022/09/23 15:15:32;;;;;;;12.38;3.13;;;;;;;;;;4966079;28;20104;-57